Time;durP1;ratioP1;P1;durP2;ratioP2;P2;SDS_P1;SDS_P2;PMS_P1;PMS_P2;Temp;Humidity;BMP_temperature;BMP_pressure;BME280_temperature;BME280_humidity;BME280_pressure;Samples;Min_cycle;Max_cycle;Signal;HPM_P1;HPM_P2
2021/08/28 00:01:11;;;;;;;7.85;4.40;;;;;;;14.92;70.54;100442.97;4995013;28;20167;-75
2021/08/28 00:03:37;;;;;;;7.68;4.85;;;;;;;14.92;70.18;100445.59;4995155;28;20041;-76
2021/08/28 00:06:03;;;;;;;7.43;4.80;;;;;;;14.94;70.58;100456.91;5011770;28;20061;-75
2021/08/28 00:08:28;;;;;;;8.02;4.40;;;;;;;14.95;70.74;100450.78;5011394;28;20756;-75
2021/08/28 00:10:54;;;;;;;6.03;4.32;;;;;;;14.86;70.42;100451.81;4994400;28;20053;-74
2021/08/28 00:13:20;;;;;;;5.43;4.20;;;;;;;14.89;70.52;100458.78;4994857;28;20108;-75
2021/08/28 00:15:46;;;;;;;6.47;4.50;;;;;;;14.81;70.61;100444.91;4995024;28;20061;-74
2021/08/28 00:18:11;;;;;;;6.13;4.10;;;;;;;14.84;70.59;100461.44;4995323;28;20040;-74
2021/08/28 00:20:38;;;;;;;8.35;4.00;;;;;;;14.75;70.58;100454.59;4994817;28;20046;-75
2021/08/28 00:23:06;;;;;;;7.18;3.95;;;;;;;14.74;70.80;100452.00;4975788;28;20046;-76
2021/08/28 00:25:33;;;;;;;5.28;3.70;;;;;;;14.80;70.76;100459.75;4974781;28;20092;-75
2021/08/28 00:28:11;;;;;;;7.18;3.70;;;;;;;14.78;70.58;100455.44;4997423;28;20038;-75
2021/08/28 00:30:37;;;;;;;6.00;3.15;;;;;;;14.65;70.59;100429.41;4995669;28;20482;-77
2021/08/28 00:33:17;;;;;;;7.10;3.47;;;;;;;14.74;70.34;100445.00;5011041;28;20050;-76
2021/08/28 00:35:44;;;;;;;10.50;3.03;;;;;;;14.82;70.53;100462.38;5012687;28;20088;-74
2021/08/28 00:38:11;;;;;;;5.38;3.50;;;;;;;14.87;70.66;100466.63;5031375;28;20061;-77
2021/08/28 00:40:38;;;;;;;6.38;3.78;;;;;;;14.84;70.42;100460.59;5028603;28;20065;-74
2021/08/28 00:43:04;;;;;;;7.80;3.33;;;;;;;14.83;70.47;100464.94;4998340;28;20034;-75
2021/08/28 00:45:38;;;;;;;7.63;3.90;;;;;;;14.83;70.44;100464.09;4997231;28;20136;-75
2021/08/28 00:48:09;;;;;;;4.85;3.30;;;;;;;14.80;70.12;100465.00;5015034;28;20042;-76
2021/08/28 00:50:36;;;;;;;6.43;3.80;;;;;;;14.81;70.17;100464.09;5015175;28;20053;-75
2021/08/28 00:53:03;;;;;;;8.57;3.83;;;;;;;14.61;70.28;100432.97;4999176;28;20464;-77
2021/08/28 00:55:31;;;;;;;5.60;3.40;;;;;;;14.80;70.09;100464.16;5002492;28;20073;-77
2021/08/28 00:57:58;;;;;;;10.43;3.63;;;;;;;14.74;70.31;100467.72;4997683;28;20136;-78
2021/08/28 01:00:25;;;;;;;6.90;3.45;;;;;;;14.80;70.36;100467.63;4985161;28;20042;-77
2021/08/28 01:02:52;;;;;;;4.95;2.90;;;;;;;14.83;70.22;100475.44;4974762;28;20522;-76
2021/08/28 01:05:22;;;;;;;5.25;3.10;;;;;;;14.79;70.10;100472.88;5008302;28;20070;-76
2021/08/28 01:08:13;;;;;;;6.13;2.92;;;;;;;14.76;70.03;100479.06;4968676;28;20046;-74
2021/08/28 01:11:31;;;;;;;6.82;3.40;;;;;;;14.76;70.21;100479.06;4979460;28;20061;-77
2021/08/28 01:14:06;;;;;;;6.47;2.95;;;;;;;14.67;70.07;100464.31;4994926;28;20097;-74
2021/08/28 01:16:54;;;;;;;5.40;2.70;;;;;;;14.58;69.92;100462.69;4989656;28;20054;-75
2021/08/28 01:19:35;;;;;;;5.28;2.60;;;;;;;14.67;69.96;100479.16;4989486;28;20053;-74
2021/08/28 01:22:05;;;;;;;3.88;2.70;;;;;;;14.65;70.23;100467.81;5000845;28;20497;-76
2021/08/28 01:24:58;;;;;;;3.30;2.45;;;;;;;14.65;70.10;100476.56;4989586;28;20038;-75
2021/08/28 01:27:49;;;;;;;9.05;2.80;;;;;;;14.65;69.93;100476.56;4988693;28;20050;-76
2021/08/28 01:30:17;;;;;;;3.85;3.00;;;;;;;14.63;70.20;100477.47;4971604;28;20204;-75
2021/08/28 01:32:45;;;;;;;3.30;2.35;;;;;;;14.65;69.87;100481.81;5003932;28;20046;-77
2021/08/28 01:35:12;;;;;;;4.25;2.47;;;;;;;14.66;69.95;100478.31;5005089;28;20125;-78
2021/08/28 01:37:43;;;;;;;4.30;2.35;;;;;;;14.62;70.39;100481.84;4966404;28;20042;-75
2021/08/28 01:40:32;;;;;;;6.97;2.53;;;;;;;14.61;70.00;100480.97;4962324;28;20043;-76
2021/08/28 01:43:00;;;;;;;5.20;2.20;;;;;;;14.60;69.77;100473.16;4977067;28;20057;-78
2021/08/28 01:45:26;;;;;;;4.00;2.40;;;;;;;14.59;70.06;100471.41;4959399;28;20072;-75
2021/08/28 01:47:57;;;;;;;4.93;2.70;;;;;;;14.59;70.06;100466.19;4975689;28;20475;-76
2021/08/28 01:50:24;;;;;;;3.55;2.42;;;;;;;14.61;69.86;100474.88;4990240;28;20522;-75
2021/08/28 01:52:56;;;;;;;4.93;2.60;;;;;;;14.62;70.10;100479.22;4965129;28;20049;-75
2021/08/28 01:55:25;;;;;;;4.35;2.40;;;;;;;14.55;69.51;100460.13;4975162;28;20494;-75
2021/08/28 01:58:05;;;;;;;4.03;2.38;;;;;;;14.63;69.94;100467.88;4979564;28;20070;-78
2021/08/28 02:00:49;;;;;;;5.93;2.38;;;;;;;14.70;69.68;100473.91;4974412;28;20038;-78
2021/08/28 02:03:34;;;;;;;8.38;2.50;;;;;;;14.53;69.60;100450.53;4996119;28;20486;-77
2021/08/28 02:06:03;;;;;;;2.50;1.98;;;;;;;14.61;69.67;100456.53;4977483;28;20132;-77
2021/08/28 02:08:49;;;;;;;3.70;2.22;;;;;;;14.68;69.55;100473.91;4962345;28;20391;-77
2021/08/28 02:11:23;;;;;;;4.05;2.70;;;;;;;14.71;69.44;100480.88;4977805;28;20038;-77
2021/08/28 02:13:58;;;;;;;6.90;2.30;;;;;;;14.65;69.51;100486.16;4945781;28;20053;-76
2021/08/28 02:16:26;;;;;;;6.15;2.22;;;;;;;14.63;69.50;100480.06;4993339;28;20124;-77
2021/08/28 02:19:02;;;;;;;5.63;2.63;;;;;;;14.51;68.98;100483.75;4993998;28;20414;-76
2021/08/28 02:21:58;;;;;;;3.90;2.45;;;;;;;14.45;69.43;100477.69;4987224;28;20060;-78
2021/08/28 02:24:39;;;;;;;3.50;2.25;;;;;;;14.47;69.19;100480.31;4980491;28;20045;-77
2021/08/28 02:27:20;;;;;;;4.80;2.42;;;;;;;14.47;69.29;100488.16;4997092;28;20053;-77
2021/08/28 02:29:54;;;;;;;3.13;2.35;;;;;;;14.45;69.56;100485.56;4997494;28;20049;-76
2021/08/28 02:32:22;;;;;;;4.95;2.45;;;;;;;14.45;69.53;100493.41;4996976;28;20120;-76
2021/08/28 02:34:50;;;;;;;3.53;2.25;;;;;;;14.32;69.41;100476.16;4997834;28;20060;-75
2021/08/28 02:37:17;;;;;;;6.68;2.20;;;;;;;14.29;69.35;100494.50;5015081;28;20057;-77
2021/08/28 02:39:45;;;;;;;4.65;2.65;;;;;;;14.00;69.55;100461.75;4997727;28;20073;-77
2021/08/28 02:42:15;;;;;;;5.28;2.83;;;;;;;14.11;69.52;100486.00;4998704;28;20532;-78
2021/08/28 02:44:44;;;;;;;5.60;2.72;;;;;;;14.11;69.74;100488.63;5021229;28;20037;-77
2021/08/28 02:47:13;;;;;;;3.67;2.75;;;;;;;14.07;69.73;100484.31;5033658;28;20030;-76
2021/08/28 02:49:43;;;;;;;5.78;3.28;;;;;;;14.00;69.89;100475.69;4998679;28;20178;-77
2021/08/28 02:52:23;;;;;;;4.65;2.40;;;;;;;14.11;69.84;100498.25;4964469;28;20153;-77
2021/08/28 02:54:51;;;;;;;5.93;2.85;;;;;;;14.06;70.07;100498.28;4980249;28;20073;-76
2021/08/28 02:57:18;;;;;;;6.13;2.97;;;;;;;14.10;69.85;100499.13;4996037;28;20049;-74
2021/08/28 02:59:46;;;;;;;6.32;3.20;;;;;;;13.99;69.85;100486.19;4996442;28;20050;-76
2021/08/28 03:02:15;;;;;;;4.20;2.92;;;;;;;14.05;69.90;100507.00;4979694;28;20463;-77
2021/08/28 03:04:41;;;;;;;5.65;3.10;;;;;;;13.76;70.21;100462.88;4996152;28;20081;-74
2021/08/28 03:07:08;;;;;;;5.40;3.30;;;;;;;14.05;70.33;100501.78;5013284;28;20136;-75
2021/08/28 03:09:36;;;;;;;4.22;3.00;;;;;;;14.05;70.22;100501.78;4980227;28;20048;-77
2021/08/28 03:12:02;;;;;;;5.22;2.88;;;;;;;14.05;70.17;100504.41;5014155;28;20133;-76
2021/08/28 03:14:28;;;;;;;8.40;2.70;;;;;;;13.95;69.79;100500.19;5017444;28;20177;-78
2021/08/28 03:16:57;;;;;;;4.70;2.60;;;;;;;13.97;70.31;100514.09;5012213;28;20146;-76
2021/08/28 03:19:40;;;;;;;5.38;2.40;;;;;;;14.02;69.74;100517.50;4999700;28;20029;-79
2021/08/28 03:22:08;;;;;;;4.22;2.60;;;;;;;14.08;70.14;100516.59;4999537;28;20077;-78
2021/08/28 03:24:35;;;;;;;6.13;2.40;;;;;;;14.04;69.98;100499.19;4980117;28;20036;-79
2021/08/28 03:27:09;;;;;;;6.97;2.10;;;;;;;14.03;69.94;100489.63;4996219;28;20079;-75
2021/08/28 03:29:36;;;;;;;4.97;2.50;;;;;;;13.99;70.07;100476.56;5013394;28;20128;-78
2021/08/28 03:32:05;;;;;;;4.78;2.30;;;;;;;14.24;69.78;100507.66;4995989;28;20049;-78
2021/08/28 03:34:33;;;;;;;7.43;2.10;;;;;;;14.38;69.33;100511.84;4979960;28;20100;-76
2021/08/28 03:37:00;;;;;;;4.15;2.33;;;;;;;14.45;69.34;100510.88;5013122;28;20049;-77
2021/08/28 03:39:27;;;;;;;5.40;2.20;;;;;;;14.51;69.34;100515.16;4995609;28;20048;-77
2021/08/28 03:41:55;;;;;;;5.20;3.00;;;;;;;14.41;69.39;100477.78;4979221;28;20073;-75
2021/08/28 03:44:21;;;;;;;5.95;2.05;;;;;;;14.52;68.49;100482.84;4996101;28;20077;-79
2021/08/28 03:46:49;;;;;;;3.28;2.10;;;;;;;14.58;68.87;100512.44;5011762;28;20048;-77
2021/08/28 03:49:16;;;;;;;4.65;2.42;;;;;;;14.61;68.63;100501.06;5013618;28;20042;-77
2021/08/28 03:51:43;;;;;;;5.25;2.22;;;;;;;14.77;68.58;100509.59;4978706;28;20073;-75
2021/08/28 03:54:09;;;;;;;5.47;2.20;;;;;;;14.97;68.41;100514.53;4996055;28;20104;-77
2021/08/28 03:56:35;;;;;;;4.35;2.55;;;;;;;15.00;67.80;100504.00;5012667;28;20405;-77
2021/08/28 03:59:01;;;;;;;5.13;2.30;;;;;;;15.10;67.95;100514.34;5005922;28;20061;-76
2021/08/28 04:01:27;;;;;;;5.60;2.50;;;;;;;15.04;67.22;100494.31;4991902;28;20533;-77
2021/08/28 04:03:53;;;;;;;3.80;2.20;;;;;;;15.16;67.11;100502.00;4959536;28;20057;-76
2021/08/28 04:06:20;;;;;;;3.17;2.20;;;;;;;15.09;67.01;100502.13;4959519;28;20494;-76
2021/08/28 04:08:47;;;;;;;3.83;1.90;;;;;;;15.08;66.38;100511.72;4993482;28;20061;-76
2021/08/28 04:11:16;;;;;;;4.30;2.10;;;;;;;15.00;66.70;100519.72;4959759;28;20037;-77
2021/08/28 04:13:42;;;;;;;4.72;2.15;;;;;;;15.02;66.58;100530.16;4991677;28;20510;-76
2021/08/28 04:16:08;;;;;;;6.43;2.30;;;;;;;15.00;66.37;100522.34;4975812;28;20077;-77
2021/08/28 04:18:43;;;;;;;5.13;2.42;;;;;;;15.08;65.83;100514.34;4959749;28;20043;-78
2021/08/28 04:21:35;;;;;;;5.05;2.30;;;;;;;15.26;65.97;100523.69;4959721;28;20520;-76
2021/08/28 04:24:01;;;;;;;4.43;2.33;;;;;;;15.48;66.08;100526.78;4974893;28;20046;-78
2021/08/28 04:26:27;;;;;;;6.43;2.85;;;;;;;15.72;65.12;100529.00;4975737;28;20422;-75
2021/08/28 04:28:56;;;;;;;3.45;1.98;;;;;;;15.94;65.36;100518.97;4981764;28;20038;-75
2021/08/28 04:31:27;;;;;;;3.58;2.10;;;;;;;16.20;64.26;100514.97;4995076;28;20046;-76
2021/08/28 04:33:56;;;;;;;4.05;2.47;;;;;;;16.37;64.34;100493.59;4979673;28;20049;-76
2021/08/28 04:36:22;;;;;;;4.30;3.00;;;;;;;16.83;64.30;100504.81;4980221;28;20038;-77
2021/08/28 04:38:49;;;;;;;5.38;2.70;;;;;;;17.09;63.59;100509.50;4996299;28;20100;-80
2021/08/28 04:41:15;;;;;;;4.10;2.47;;;;;;;17.30;62.05;100520.38;4996164;28;20128;-77
2021/08/28 04:43:41;;;;;;;4.45;2.10;;;;;;;16.82;61.95;100466.28;4995556;28;20125;-75
2021/08/28 04:46:15;;;;;;;3.28;2.20;;;;;;;17.02;62.10;100500.88;4996260;28;20506;-76
2021/08/28 04:48:48;;;;;;;3.95;2.30;;;;;;;17.01;60.88;100519.31;4990376;28;20281;-77
2021/08/28 04:51:29;;;;;;;4.97;2.20;;;;;;;17.02;61.28;100510.53;5021663;28;20029;-75
2021/08/28 04:53:55;;;;;;;3.85;2.00;;;;;;;17.07;60.75;100508.66;5001487;28;20046;-79
2021/08/28 04:56:21;;;;;;;4.32;2.30;;;;;;;17.17;61.07;100502.25;4978401;28;20094;-77
2021/08/28 04:58:49;;;;;;;2.97;2.20;;;;;;;17.41;60.75;100502.53;4959990;28;20086;-76
2021/08/28 05:01:50;;;;;;;4.50;2.13;;;;;;;17.66;60.09;100501.00;4954837;29;20039;-76
2021/08/28 05:04:30;;;;;;;6.47;1.90;;;;;;;17.66;60.13;100483.47;4973274;28;20058;-76
2021/08/28 05:06:57;;;;;;;1.90;1.70;;;;;;;18.29;59.49;100504.53;4959502;28;20403;-77
2021/08/28 05:09:28;;;;;;;3.45;1.75;;;;;;;18.64;59.34;100507.88;4960676;28;20081;-76
2021/08/28 05:11:55;;;;;;;3.13;2.03;;;;;;;19.07;58.37;100508.28;4976896;28;20453;-77
2021/08/28 05:14:23;;;;;;;3.20;1.98;;;;;;;19.48;55.74;100489.34;4944236;28;20068;-75
2021/08/28 05:16:49;;;;;;;7.88;2.22;;;;;;;20.03;55.72;100509.41;4960464;28;20045;-77
2021/08/28 05:19:35;;;;;;;2.50;1.95;;;;;;;21.57;52.59;100500.66;4975110;28;20093;-79
2021/08/28 05:22:07;;;;;;;4.20;1.85;;;;;;;22.32;51.80;100492.91;4959536;28;20049;-78
2021/08/28 05:24:52;;;;;;;4.43;1.92;;;;;;;23.33;50.09;100488.06;4974474;28;20050;-78
2021/08/28 05:27:18;;;;;;;2.88;2.20;;;;;;;23.82;48.47;100474.00;4974397;28;20069;-78
2021/08/28 05:29:43;;;;;;;3.83;1.70;;;;;;;24.64;46.71;100475.69;4971013;28;20518;-78
2021/08/28 05:32:09;;;;;;;4.00;2.40;;;;;;;24.71;45.27;100451.41;4971182;28;20046;-77
2021/08/28 05:34:35;;;;;;;4.18;1.90;;;;;;;24.17;42.55;100501.34;4971465;28;20507;-77
2021/08/28 05:37:30;;;;;;;4.63;1.98;;;;;;;22.85;44.75;100491.28;4956997;28;20510;-77
2021/08/28 05:40:08;;;;;;;3.92;1.70;;;;;;;23.26;46.07;100485.72;4978521;28;20084;-76
2021/08/28 05:42:35;;;;;;;6.22;2.33;;;;;;;22.98;43.62;100483.56;4977703;28;20114;-77
2021/08/28 05:45:03;;;;;;;8.15;2.00;;;;;;;22.20;43.44;100484.59;4962166;28;20116;-78
2021/08/28 05:47:29;;;;;;;4.05;1.73;;;;;;;22.50;45.91;100492.06;4978544;28;20042;-76
2021/08/28 05:49:54;;;;;;;4.30;2.13;;;;;;;23.41;43.37;100484.06;4961915;28;20049;-75
2021/08/28 05:52:20;;;;;;;3.67;2.35;;;;;;;24.21;42.83;100462.16;4978369;28;20071;-76
2021/08/28 05:54:46;;;;;;;3.80;2.08;;;;;;;25.02;40.29;100473.59;4995158;28;20044;-78
2021/08/28 05:57:13;;;;;;;2.42;1.83;;;;;;;25.74;40.65;100470.22;4961182;28;20042;-75
2021/08/28 05:59:38;;;;;;;3.17;1.70;;;;;;;26.16;37.86;100465.81;4978364;28;20057;-78
2021/08/28 06:02:08;;;;;;;6.72;2.03;;;;;;;27.08;39.28;100455.41;4998006;28;20046;-78
2021/08/28 06:04:37;;;;;;;2.95;2.03;;;;;;;28.23;36.39;100458.97;4981643;28;20649;-76
2021/08/28 06:07:09;;;;;;;6.30;2.10;;;;;;;29.34;36.83;100454.31;4998460;28;20042;-78
2021/08/28 06:09:58;;;;;;;4.55;2.10;;;;;;;31.40;34.27;100439.44;4972299;28;20104;-76
2021/08/28 06:12:39;;;;;;;5.15;1.90;;;;;;;31.70;32.15;100443.09;4982696;28;20038;-76
2021/08/28 06:15:24;;;;;;;8.18;2.20;;;;;;;31.89;32.02;100434.28;4996799;28;20038;-76
2021/08/28 06:17:55;;;;;;;6.38;2.03;;;;;;;32.01;29.77;100443.09;4997374;28;20486;-78
2021/08/28 06:20:21;;;;;;;5.97;2.33;;;;;;;32.01;29.94;100437.72;4981201;28;20073;-76
2021/08/28 06:22:47;;;;;;;3.30;1.70;;;;;;;32.25;29.81;100434.63;4997172;28;20049;-77
2021/08/28 06:25:16;;;;;;;6.72;2.10;;;;;;;33.47;28.75;100445.94;4996860;28;20065;-78
2021/08/28 06:27:42;;;;;;;3.85;2.20;;;;;;;33.86;28.31;100440.38;4980778;28;20547;-77
2021/08/28 06:30:13;;;;;;;3.00;1.92;;;;;;;34.41;27.68;100419.72;4996577;28;20045;-79
2021/08/28 06:32:38;;;;;;;3.00;2.00;;;;;;;34.62;27.10;100430.25;5015904;28;20053;-76
2021/08/28 06:35:06;;;;;;;5.63;1.83;;;;;;;35.95;25.94;100426.47;5016342;28;20045;-79
2021/08/28 06:37:39;;;;;;;5.47;2.25;;;;;;;35.73;23.35;100428.75;5000942;28;20037;-76
2021/08/28 06:40:31;;;;;;;4.55;1.70;;;;;;;35.35;25.45;100412.00;5010704;28;20053;-77
2021/08/28 06:43:21;;;;;;;3.22;1.92;;;;;;;36.54;24.15;100417.47;5001387;28;20045;-77
2021/08/28 06:46:06;;;;;;;2.22;1.73;;;;;;;37.16;23.49;100398.97;5002537;28;20137;-78
2021/08/28 06:48:50;;;;;;;4.65;1.80;;;;;;;37.63;23.26;100419.84;4993446;28;20046;-78
2021/08/28 06:51:39;;;;;;;3.65;1.90;;;;;;;37.13;21.94;100410.16;4978767;28;20141;-75
2021/08/28 06:54:35;;;;;;;4.32;2.03;;;;;;;36.90;22.77;100414.41;4941962;28;20043;-78
2021/08/28 06:57:20;;;;;;;4.22;1.90;;;;;;;36.03;22.74;100401.31;5004396;28;20041;-78
2021/08/28 07:00:03;;;;;;;1.65;1.45;;;;;;;35.86;22.44;100413.94;5006987;28;20042;-77
2021/08/28 07:02:59;;;;;;;5.57;1.92;;;;;;;35.35;23.52;100413.84;4973349;28;20087;-79
2021/08/28 07:05:26;;;;;;;5.25;2.00;;;;;;;35.17;23.78;100412.06;4957183;28;20042;-78
2021/08/28 07:07:56;;;;;;;5.85;2.00;;;;;;;36.32;23.08;100427.91;4973850;28;20058;-77
2021/08/28 07:10:22;;;;;;;5.88;2.05;;;;;;;35.80;23.03;100422.72;4960947;28;20038;-79
2021/08/28 07:12:51;;;;;;;4.38;2.15;;;;;;;35.82;21.57;100415.28;4977988;28;20057;-80
2021/08/28 07:15:17;;;;;;;7.32;2.17;;;;;;;35.88;21.73;100412.75;4962155;28;20042;-79
2021/08/28 07:17:53;;;;;;;6.45;2.50;;;;;;;35.56;22.06;100413.50;4960673;28;20148;-80
2021/08/28 07:20:20;;;;;;;4.60;2.20;;;;;;;35.51;22.46;100411.28;4962343;28;20046;-79
2021/08/28 07:22:47;;;;;;;5.22;2.22;;;;;;;35.91;23.55;100413.44;4961970;28;20053;-79
2021/08/28 07:25:48;;;;;;;3.55;2.28;;;;;;;35.78;21.81;100382.25;4994595;28;20053;-80
2021/08/28 07:28:14;;;;;;;6.43;2.40;;;;;;;36.87;21.63;100409.34;4982465;28;20041;-80
2021/08/28 07:31:02;;;;;;;5.57;2.00;;;;;;;36.31;21.70;100412.69;4982556;28;20054;-77
2021/08/28 07:33:29;;;;;;;6.72;2.00;;;;;;;35.98;22.53;100396.41;5018861;28;20050;-79
2021/08/28 07:35:55;;;;;;;6.57;2.05;;;;;;;36.45;21.25;100394.09;5016084;28;20449;-76
2021/08/28 07:38:20;;;;;;;9.25;2.70;;;;;;;38.36;20.99;100416.06;4998415;28;20042;-78
2021/08/28 07:40:47;;;;;;;5.30;1.90;;;;;;;38.34;20.63;100407.25;4965403;28;20076;-79
2021/08/28 07:43:16;;;;;;;3.13;2.13;;;;;;;37.96;21.12;100402.56;4995925;28;20045;-80
2021/08/28 07:45:48;;;;;;;5.22;2.33;;;;;;;37.86;20.80;100408.19;4979944;28;20057;-77
2021/08/28 07:48:18;;;;;;;5.20;1.90;;;;;;;37.28;20.42;100394.00;4995140;28;20065;-77
2021/08/28 07:50:44;;;;;;;4.47;2.17;;;;;;;36.48;21.15;100401.91;5011374;28;20048;-78
2021/08/28 07:53:10;;;;;;;3.63;2.03;;;;;;;36.03;19.99;100407.59;4962301;28;20073;-78
2021/08/28 07:55:45;;;;;;;3.03;1.70;;;;;;;35.92;21.54;100367.25;4995928;28;20072;-79
2021/08/28 07:58:14;;;;;;;4.25;1.88;;;;;;;36.56;21.99;100393.75;4958939;28;20536;-78
2021/08/28 08:00:55;;;;;;;1.92;1.73;;;;;;;37.40;21.31;100346.50;4990751;28;20109;-80
2021/08/28 08:03:28;;;;;;;5.63;2.22;;;;;;;37.74;19.80;100329.03;4957011;28;20563;-80
2021/08/28 08:06:18;;;;;;;4.30;2.10;;;;;;;38.13;20.12;100382.44;4992626;28;20038;-78
2021/08/28 08:09:03;;;;;;;3.53;2.20;;;;;;;37.84;20.67;100393.97;4992940;28;20069;-78
2021/08/28 08:11:35;;;;;;;5.00;2.33;;;;;;;37.62;19.72;100380.16;4975801;28;20130;-80
2021/08/28 08:14:20;;;;;;;3.65;2.20;;;;;;;37.81;20.44;100387.03;4993369;28;20053;-80
2021/08/28 08:17:04;;;;;;;4.65;2.47;;;;;;;38.66;19.48;100373.53;4976169;28;20038;-78
2021/08/28 08:19:49;;;;;;;3.15;2.10;;;;;;;39.15;19.34;100363.19;4975684;28;20045;-76
2021/08/28 08:22:41;;;;;;;6.63;2.75;;;;;;;39.28;19.19;100387.84;4932356;29;20078;-78
2021/08/28 08:25:31;;;;;;;2.47;1.90;;;;;;;39.74;19.04;100394.09;4991789;28;20041;-78
2021/08/28 08:28:24;;;;;;;5.97;2.55;;;;;;;39.75;18.08;100390.38;5012780;28;20144;-79
2021/08/28 08:31:13;;;;;;;3.30;2.08;;;;;;;39.26;19.70;100384.47;4977869;28;20066;-78
2021/08/28 08:33:40;;;;;;;3.90;2.20;;;;;;;39.58;18.13;100382.41;4971794;28;20042;-79
2021/08/28 08:36:16;;;;;;;3.28;2.00;;;;;;;38.63;19.61;100390.22;4955887;28;20049;-79
2021/08/28 08:38:51;;;;;;;3.35;2.22;;;;;;;38.33;20.08;100373.78;4974150;28;20046;-77
2021/08/28 08:41:39;;;;;;;2.92;2.00;;;;;;;40.38;19.15;100378.88;4959009;28;20047;-77
2021/08/28 08:44:08;;;;;;;9.52;2.15;;;;;;;40.48;17.90;100354.88;4973006;28;20105;-81
2021/08/28 08:46:45;;;;;;;4.30;2.15;;;;;;;39.56;18.02;100379.03;4942046;28;20529;-78
2021/08/28 08:49:16;;;;;;;5.47;2.40;;;;;;;38.20;18.16;100264.91;4957034;28;20043;-75
2021/08/28 08:51:45;;;;;;;4.10;2.28;;;;;;;38.63;18.72;100390.22;4957158;28;20041;-76
2021/08/28 08:54:14;;;;;;;7.10;2.67;;;;;;;37.79;19.44;100374.63;4957558;28;20053;-77
2021/08/28 08:56:40;;;;;;;6.97;2.53;;;;;;;38.11;20.26;100367.34;4978514;28;20050;-76
2021/08/28 08:59:10;;;;;;;2.50;2.10;;;;;;;37.61;19.94;100372.22;4992890;28;20050;-76
2021/08/28 09:01:37;;;;;;;3.85;2.58;;;;;;;37.52;19.42;100364.09;4965028;28;20069;-76
2021/08/28 09:04:22;;;;;;;2.72;2.33;;;;;;;38.85;19.79;100341.44;4997491;28;20128;-76
2021/08/28 09:06:49;;;;;;;3.75;2.38;;;;;;;38.82;19.94;100348.06;4959406;28;20069;-76
2021/08/28 09:09:16;;;;;;;4.45;2.13;;;;;;;40.13;18.91;100354.72;4990944;28;20046;-76
2021/08/28 09:12:05;;;;;;;3.25;2.10;;;;;;;40.60;18.47;100348.84;4961096;28;20042;-76
2021/08/28 09:14:43;;;;;;;3.17;2.75;;;;;;;41.22;17.88;100354.53;4963175;28;20042;-77
2021/08/28 09:17:17;;;;;;;4.68;2.03;;;;;;;40.11;17.90;100356.81;4978039;28;20065;-77
2021/08/28 09:19:47;;;;;;;5.20;2.42;;;;;;;39.51;18.48;100332.47;4962291;28;20042;-77
2021/08/28 09:22:30;;;;;;;3.88;2.40;;;;;;;39.00;18.71;100347.69;4978495;28;20120;-75
2021/08/28 09:25:03;;;;;;;2.70;2.38;;;;;;;38.40;18.56;100320.44;4993825;28;20038;-75
2021/08/28 09:27:47;;;;;;;6.65;2.72;;;;;;;37.69;20.36;100304.31;4994833;28;20176;-76
2021/08/28 09:30:15;;;;;;;4.50;2.00;;;;;;;37.96;19.03;100304.81;4962113;28;20533;-75
2021/08/28 09:33:13;;;;;;;2.70;2.30;;;;;;;37.81;19.16;100327.31;4993662;28;20078;-78
2021/08/28 09:35:47;;;;;;;5.47;2.60;;;;;;;37.24;19.95;100306.72;4983752;28;20046;-77
2021/08/28 09:38:17;;;;;;;4.82;3.05;;;;;;;36.77;20.32;100300.25;4963565;28;20088;-77
2021/08/28 09:40:59;;;;;;;3.55;2.50;;;;;;;37.72;20.93;100313.97;5008381;28;20054;-75
2021/08/28 09:43:27;;;;;;;2.97;2.10;;;;;;;39.25;19.05;100300.34;4983338;28;20041;-77
2021/08/28 09:45:54;;;;;;;3.60;2.38;;;;;;;38.68;19.79;100270.03;5015809;28;20076;-75
2021/08/28 09:48:31;;;;;;;2.80;2.40;;;;;;;40.01;18.44;100323.63;4997847;28;20065;-78
2021/08/28 09:50:59;;;;;;;3.92;2.35;;;;;;;38.99;18.64;100326.97;4998357;28;20045;-79
2021/08/28 09:53:30;;;;;;;3.67;1.98;;;;;;;38.03;18.86;100315.81;4981144;28;20072;-77
2021/08/28 09:56:02;;;;;;;4.57;2.40;;;;;;;37.74;19.91;100271.22;4999117;28;20046;-77
2021/08/28 09:58:32;;;;;;;3.08;2.30;;;;;;;38.39;19.54;100343.22;4974488;28;20114;-75
2021/08/28 10:01:07;;;;;;;;;;;;;;;37.42;18.36;100359.88;4959039;28;20054;-79
2021/08/28 10:03:33;;;;;;;3.05;2.40;;;;;;;36.35;20.03;100291.34;4980555;28;19964;-80
2021/08/28 10:06:01;;;;;;;2.40;2.00;;;;;;;36.46;20.39;100279.31;4964324;28;20069;-79
2021/08/28 10:08:31;;;;;;;5.72;2.15;;;;;;;36.37;20.15;100256.81;4979920;28;20136;-76
2021/08/28 10:11:02;;;;;;;4.50;3.63;;;;;;;36.73;20.14;100207.63;4996899;28;20042;-77
2021/08/28 10:13:30;;;;;;;4.47;2.50;;;;;;;37.48;19.65;100210.00;4984844;28;20042;-77
2021/08/28 10:16:02;;;;;;;3.90;1.83;;;;;;;38.26;19.81;100204.44;5000352;28;20054;-78
2021/08/28 10:18:33;;;;;;;5.25;2.90;;;;;;;38.53;18.85;100212.97;4949489;28;20055;-79
2021/08/28 10:21:03;;;;;;;4.22;2.47;;;;;;;38.15;18.60;100289.06;4964637;28;20510;-76
2021/08/28 10:23:45;;;;;;;5.70;2.60;;;;;;;36.59;19.34;100219.19;4996961;28;20239;-79
2021/08/28 10:26:15;;;;;;;3.30;2.08;;;;;;;36.63;20.13;100240.34;4934561;28;20042;-77
2021/08/28 10:28:42;;;;;;;3.80;2.95;;;;;;;37.11;19.31;100330.84;4963846;28;20065;-79
2021/08/28 10:31:10;;;;;;;5.88;2.58;;;;;;;36.82;20.76;100324.97;5012552;28;20498;-77
2021/08/28 10:33:45;;;;;;;4.88;2.63;;;;;;;35.44;20.18;100202.75;5016630;28;20433;-80
2021/08/28 10:36:13;;;;;;;6.45;2.70;;;;;;;34.60;21.63;100240.47;4999130;28;20110;-77
2021/08/28 10:38:42;;;;;;;4.30;3.10;;;;;;;34.50;20.88;100282.91;5015503;28;20041;-79
2021/08/28 10:41:10;;;;;;;5.18;2.63;;;;;;;32.73;22.19;100348.63;4983276;28;20053;-78
2021/08/28 10:43:36;;;;;;;6.43;2.63;;;;;;;31.03;24.47;100327.06;5000058;28;20038;-78
2021/08/28 10:46:16;;;;;;;4.72;2.90;;;;;;;30.29;25.59;100343.09;5000048;28;20049;-76
2021/08/28 10:48:59;;;;;;;5.55;2.60;;;;;;;29.65;26.44;100334.00;4983332;28;20034;-75
2021/08/28 10:51:31;;;;;;;4.90;2.83;;;;;;;28.66;27.60;100333.63;4952872;28;20418;-76
2021/08/28 10:54:02;;;;;;;4.53;2.55;;;;;;;27.65;29.36;100336.56;4983589;28;20633;-76
2021/08/28 10:56:36;;;;;;;5.68;2.80;;;;;;;26.92;30.06;100336.28;4985033;28;20038;-79
2021/08/28 10:59:32;;;;;;;5.30;2.83;;;;;;;27.02;31.09;100327.66;4971943;28;20057;-80
2021/08/28 11:02:08;;;;;;;7.60;2.83;;;;;;;26.77;31.00;100329.31;5010332;28;20041;-81
2021/08/28 11:04:36;;;;;;;4.50;2.95;;;;;;;26.16;31.42;100353.81;4998589;28;20093;-76
2021/08/28 11:07:27;;;;;;;5.70;3.15;;;;;;;25.17;33.33;100347.53;5011009;28;20064;-79
2021/08/28 11:10:11;;;;;;;5.38;2.95;;;;;;;25.05;34.34;100334.97;5004702;28;20039;-81
2021/08/28 11:13:02;;;;;;;3.70;3.10;;;;;;;24.15;34.21;100228.59;4983228;28;20485;-81
2021/08/28 11:15:29;;;;;;;5.68;2.58;;;;;;;24.75;34.75;100334.09;4988932;28;20181;-78
2021/08/28 11:17:59;;;;;;;2.95;2.38;;;;;;;24.12;34.84;100252.69;4979062;28;20046;-76
2021/08/28 11:20:46;;;;;;;4.32;2.28;;;;;;;24.11;35.53;100261.63;4978926;28;20045;-77
2021/08/28 11:23:18;;;;;;;6.25;2.50;;;;;;;23.65;36.16;100246.47;4962952;28;20054;-76
2021/08/28 11:25:46;;;;;;;2.95;2.28;;;;;;;23.04;36.71;100182.56;4999512;28;20070;-76
2021/08/28 11:28:22;;;;;;;3.35;2.25;;;;;;;23.60;37.62;100290.09;4981464;28;20144;-78
2021/08/28 11:30:54;;;;;;;7.60;2.50;;;;;;;23.73;37.90;100319.47;4979597;28;20077;-77
2021/08/28 11:33:30;;;;;;;3.00;2.50;;;;;;;23.12;37.81;100246.69;4979771;28;20046;-78
2021/08/28 11:36:00;;;;;;;4.22;2.53;;;;;;;23.07;38.54;100254.88;4948525;28;20124;-77
2021/08/28 11:38:36;;;;;;;5.65;2.45;;;;;;;23.20;38.85;100286.09;4994210;28;20046;-77
2021/08/28 11:41:11;;;;;;;3.53;2.55;;;;;;;23.35;39.00;100322.44;4994376;28;20058;-79
2021/08/28 11:43:43;;;;;;;7.30;2.70;;;;;;;23.19;39.07;100316.22;4961633;28;20065;-79
2021/08/28 11:46:18;;;;;;;4.80;3.00;;;;;;;23.12;39.37;100318.34;4980974;28;20056;-77
2021/08/28 11:48:47;;;;;;;4.68;2.50;;;;;;;22.77;39.71;100300.69;4995446;28;20046;-78
2021/08/28 11:51:17;;;;;;;6.03;2.63;;;;;;;22.79;39.74;100306.78;4995689;28;20093;-79